Atlanta, Georgia
Traffic Map
Current Weather Conditions
Atlanta, Georgia
Overcast
Overcast
45°
Feels Like: 38°
Wind Chill: 38° Ceiling: 2500
Heat Index: 45° Visibility: 10mi
Dew Point: 30° Wind: 14mph
Humidity: 57% Direction: 110° (ESE)
Pressure: 30.54in Gusts: 21mph
Raw Report DataKATL 010416Z 11012G18KT 10SM BKN025 OVC038 07/M01 A3054 RMK AO2
Traffic Incident Summary
Active as of:
Severity:
Category:
InformationThere was an issue retrieving the traffic information for this location. Please try a different location or try again shortly.
Advertisements
Track Severe Weather on mobile